Van Wyck, South Carolina
Current Conditions -  °F | °C
As of 7:55 AM on Wednesday 26 Nov 2014 (Local Time) from KLKR Reporting Station
Moderate Rain Moderate Rain  
Wind Chill: 41°   Ceiling: 800
Heat Index: 45°   Visibility: 3mi
Dew Point: 45°   Wind: 7mph
Humidity: 100%   Direction: 290°WNW
Pressure: 30"   Gusts: NA
Location:  34.86°N, 80.85°W
Report Text: KLKR 261255Z AUTO 29006KT 3SM RA OVC008 07/07 A3000 RMK AO2
Loading
Personal Weather Stations






























Interactive Weather Map New forecast layout! Learn more

10-Day Weather Forecast

Advertisements
Track Severe Weather on mobile